aviador You're here:

KFAM Decoded Metar

FARMINGTON in MO, USA
Report Time2017-07-23 05:56:00
UTC Time2017-07-23 06:50:32
Flight Rules vfr VFR
Wind210° at 07 kt
W.Decomp.*RWY 20: 6.9 kt HW 1.0 kt RCW
W.Rank210° ranks 11
Current wind is below 210° avg. (8.2)
Visibility9999 m
Phenomena:N/A
Clouds:N/A
Expected CloudBase > 2,000 ft AGL from Temp-Dew spread
CeilingNone
Temp28°C (ISA +15)
Dew Point23°C (74% RH)
Heat Index31.2°C
QNH1012 hPa
Density Alt3,061 ft
Elevation945 ft
Report Wrong Elevation
Raw Report
KFAM 230556Z AUTO 21007KT 10SM CLR 28/23 A2987 RMK AO2 SLP097
T02830228 10344 20278 403720244 58002=

Extra information for KFAM:More info

Metar Taf Metar & Taf Last 4 Metars F.Rules Stats Wind Profile Meteogram Temp Stats Airport Information Weather charts Add Link Nearby VenuesMetar ALERT Operation Metar Decoded Social comments

AIRNAV info for KFAM